sensor_id;sensor_type;location;lat;lon;timestamp;temperature;humidity
4399;DHT22;2213;49.720;7.296;2022-09-01T00:00:00;15.90;99.90
4399;DHT22;2213;49.720;7.296;2022-09-01T00:02:29;15.80;99.90
4399;DHT22;2213;49.720;7.296;2022-09-01T00:04:58;15.70;99.90
4399;DHT22;2213;49.720;7.296;2022-09-01T00:07:33;15.80;99.90
4399;DHT22;2213;49.720;7.296;2022-09-01T00:10:05;15.70;99.90
4399;DHT22;2213;49.720;7.296;2022-09-01T00:12:36;15.70;99.90
4399;DHT22;2213;49.720;7.296;2022-09-01T00:15:07;15.60;99.90
4399;DHT22;2213;49.720;7.296;2022-09-01T00:17:38;15.60;99.90
4399;DHT22;2213;49.720;7.296;2022-09-01T00:20:08;15.60;99.90
4399;DHT22;2213;49.720;7.296;2022-09-01T00:22:45;15.60;99.90
4399;DHT22;2213;49.720;7.296;2022-09-01T00:25:13;15.60;99.90
4399;DHT22;2213;49.720;7.296;2022-09-01T00:27:45;15.50;99.90
4399;DHT22;2213;49.720;7.296;2022-09-01T00:30:16;15.50;99.90
4399;DHT22;2213;49.720;7.296;2022-09-01T00:32:46;15.40;99.90
4399;DHT22;2213;49.720;7.296;2022-09-01T00:35:18;15.40;99.90
4399;DHT22;2213;49.720;7.296;2022-09-01T00:37:49;15.40;99.90
4399;DHT22;2213;49.720;7.296;2022-09-01T00:40:18;15.40;99.90
4399;DHT22;2213;49.720;7.296;2022-09-01T00:42:47;15.40;99.90
4399;DHT22;2213;49.720;7.296;2022-09-01T00:45:16;15.40;99.90
4399;DHT22;2213;49.720;7.296;2022-09-01T00:47:49;15.40;99.90
4399;DHT22;2213;49.720;7.296;2022-09-01T00:50:18;15.30;99.90
4399;DHT22;2213;49.720;7.296;2022-09-01T00:52:52;15.20;99.90
4399;DHT22;2213;49.720;7.296;2022-09-01T00:55:25;15.10;99.90
4399;DHT22;2213;49.720;7.296;2022-09-01T00:57:59;15.20;99.90
4399;DHT22;2213;49.720;7.296;2022-09-01T01:00:31;15.20;99.90
4399;DHT22;2213;49.720;7.296;2022-09-01T01:03:08;15.20;99.90
4399;DHT22;2213;49.720;7.296;2022-09-01T01:05:41;15.20;99.90
4399;DHT22;2213;49.720;7.296;2022-09-01T01:08:23;15.10;99.90
4399;DHT22;2213;49.720;7.296;2022-09-01T01:11:01;15.10;99.90
4399;DHT22;2213;49.720;7.296;2022-09-01T01:13:31;15.20;99.90
4399;DHT22;2213;49.720;7.296;2022-09-01T01:16:05;15.10;99.90
4399;DHT22;2213;49.720;7.296;2022-09-01T01:18:34;15.10;99.90
4399;DHT22;2213;49.720;7.296;2022-09-01T01:21:06;15.10;99.90
4399;DHT22;2213;49.720;7.296;2022-09-01T01:24:03;15.00;99.90
4399;DHT22;2213;49.720;7.296;2022-09-01T01:26:39;14.90;99.90
4399;DHT22;2213;49.720;7.296;2022-09-01T01:29:09;14.80;99.90
4399;DHT22;2213;49.720;7.296;2022-09-01T01:31:37;14.80;99.90
4399;DHT22;2213;49.720;7.296;2022-09-01T01:34:07;14.90;99.90
4399;DHT22;2213;49.720;7.296;2022-09-01T01:36:37;14.80;99.90
4399;DHT22;2213;49.720;7.296;2022-09-01T01:39:10;14.80;99.90
4399;DHT22;2213;49.720;7.296;2022-09-01T01:41:43;14.70;99.90
4399;DHT22;2213;49.720;7.296;2022-09-01T01:44:16;14.70;99.90
4399;DHT22;2213;49.720;7.296;2022-09-01T01:46:49;14.70;99.90
4399;DHT22;2213;49.720;7.296;2022-09-01T01:49:23;14.70;99.90
4399;DHT22;2213;49.720;7.296;2022-09-01T01:51:55;14.70;99.90
4399;DHT22;2213;49.720;7.296;2022-09-01T01:54:25;14.60;99.90
4399;DHT22;2213;49.720;7.296;2022-09-01T01:57:01;14.50;99.90
4399;DHT22;2213;49.720;7.296;2022-09-01T01:59:30;14.50;99.90
4399;DHT22;2213;49.720;7.296;2022-09-01T02:02:00;14.50;99.90
4399;DHT22;2213;49.720;7.296;2022-09-01T02:04:36;14.40;99.90
4399;DHT22;2213;49.720;7.296;2022-09-01T02:07:09;14.40;99.90
4399;DHT22;2213;49.720;7.296;2022-09-01T02:09:39;14.40;99.90
4399;DHT22;2213;49.720;7.296;2022-09-01T02:12:13;14.40;99.90
4399;DHT22;2213;49.720;7.296;2022-09-01T02:14:45;14.40;99.90
4399;DHT22;2213;49.720;7.296;2022-09-01T02:17:14;14.40;99.90
4399;DHT22;2213;49.720;7.296;2022-09-01T02:19:42;14.30;99.90
4399;DHT22;2213;49.720;7.296;2022-09-01T02:22:13;14.30;99.90
4399;DHT22;2213;49.720;7.296;2022-09-01T02:24:45;14.20;99.90
4399;DHT22;2213;49.720;7.296;2022-09-01T02:27:17;14.20;99.90
4399;DHT22;2213;49.720;7.296;2022-09-01T02:29:48;14.20;99.90
4399;DHT22;2213;49.720;7.296;2022-09-01T02:32:21;14.20;99.90
4399;DHT22;2213;49.720;7.296;2022-09-01T02:34:50;14.20;99.90
4399;DHT22;2213;49.720;7.296;2022-09-01T02:37:27;14.20;99.90
4399;DHT22;2213;49.720;7.296;2022-09-01T02:39:56;14.20;99.90
4399;DHT22;2213;49.720;7.296;2022-09-01T02:42:26;14.10;99.90
4399;DHT22;2213;49.720;7.296;2022-09-01T02:44:56;14.10;99.90
4399;DHT22;2213;49.720;7.296;2022-09-01T02:47:28;14.10;99.90
4399;DHT22;2213;49.720;7.296;2022-09-01T02:49:57;14.10;99.90
4399;DHT22;2213;49.720;7.296;2022-09-01T02:52:29;14.10;99.90
4399;DHT22;2213;49.720;7.296;2022-09-01T02:55:07;14.00;99.90
4399;DHT22;2213;49.720;7.296;2022-09-01T02:57:39;14.00;99.90
4399;DHT22;2213;49.720;7.296;2022-09-01T03:00:09;13.90;99.90
4399;DHT22;2213;49.720;7.296;2022-09-01T03:02:48;14.00;99.90
4399;DHT22;2213;49.720;7.296;2022-09-01T03:05:19;14.00;99.90
4399;DHT22;2213;49.720;7.296;2022-09-01T03:07:53;14.00;99.90
4399;DHT22;2213;49.720;7.296;2022-09-01T03:10:28;14.00;99.90
4399;DHT22;2213;49.720;7.296;2022-09-01T03:13:02;14.00;99.90
4399;DHT22;2213;49.720;7.296;2022-09-01T03:15:34;14.10;99.90
4399;DHT22;2213;49.720;7.296;2022-09-01T03:18:06;14.00;99.90
4399;DHT22;2213;49.720;7.296;2022-09-01T03:20:37;14.00;99.90
4399;DHT22;2213;49.720;7.296;2022-09-01T03:23:11;13.90;99.90
4399;DHT22;2213;49.720;7.296;2022-09-01T03:25:46;13.80;99.90
4399;DHT22;2213;49.720;7.296;2022-09-01T03:28:17;13.80;99.90
4399;DHT22;2213;49.720;7.296;2022-09-01T03:30:48;13.80;99.90
4399;DHT22;2213;49.720;7.296;2022-09-01T03:33:20;13.80;99.90
4399;DHT22;2213;49.720;7.296;2022-09-01T03:35:53;13.90;99.90
4399;DHT22;2213;49.720;7.296;2022-09-01T03:38:23;13.90;99.90
4399;DHT22;2213;49.720;7.296;2022-09-01T03:40:54;13.90;99.90
4399;DHT22;2213;49.720;7.296;2022-09-01T03:43:31;13.90;99.90
4399;DHT22;2213;49.720;7.296;2022-09-01T03:46:02;13.90;99.90
4399;DHT22;2213;49.720;7.296;2022-09-01T03:48:34;13.80;99.90
4399;DHT22;2213;49.720;7.296;2022-09-01T03:51:04;13.80;99.90
4399;DHT22;2213;49.720;7.296;2022-09-01T03:53:36;13.80;99.90
4399;DHT22;2213;49.720;7.296;2022-09-01T03:56:06;13.80;99.90
4399;DHT22;2213;49.720;7.296;2022-09-01T03:58:37;13.70;99.90
4399;DHT22;2213;49.720;7.296;2022-09-01T04:01:11;13.80;99.90
4399;DHT22;2213;49.720;7.296;2022-09-01T04:03:40;13.70;99.90
4399;DHT22;2213;49.720;7.296;2022-09-01T04:06:15;13.70;99.90
4399;DHT22;2213;49.720;7.296;2022-09-01T04:08:45;13.70;99.90
4399;DHT22;2213;49.720;7.296;2022-09-01T04:11:16;13.70;99.90
4399;DHT22;2213;49.720;7.296;2022-09-01T04:13:51;13.70;99.90
4399;DHT22;2213;49.720;7.296;2022-09-01T04:16:23;13.60;99.90
4399;DHT22;2213;49.720;7.296;2022-09-01T04:19:11;13.60;99.90
4399;DHT22;2213;49.720;7.296;2022-09-01T04:21:53;13.50;99.90
4399;DHT22;2213;49.720;7.296;2022-09-01T04:24:28;13.40;99.90
4399;DHT22;2213;49.720;7.296;2022-09-01T04:26:59;13.50;99.90
4399;DHT22;2213;49.720;7.296;2022-09-01T04:29:31;13.60;99.90
4399;DHT22;2213;49.720;7.296;2022-09-01T04:32:02;13.50;99.90
4399;DHT22;2213;49.720;7.296;2022-09-01T04:34:34;13.40;99.90
4399;DHT22;2213;49.720;7.296;2022-09-01T04:37:08;13.30;99.90
4399;DHT22;2213;49.720;7.296;2022-09-01T04:39:40;13.40;99.90
4399;DHT22;2213;49.720;7.296;2022-09-01T04:42:21;13.40;99.90
4399;DHT22;2213;49.720;7.296;2022-09-01T04:44:53;13.30;99.90
4399;DHT22;2213;49.720;7.296;2022-09-01T04:47:24;13.20;99.90
4399;DHT22;2213;49.720;7.296;2022-09-01T04:50:04;13.30;99.90
4399;DHT22;2213;49.720;7.296;2022-09-01T04:52:40;13.30;99.90
4399;DHT22;2213;49.720;7.296;2022-09-01T04:55:11;13.20;99.90
4399;DHT22;2213;49.720;7.296;2022-09-01T04:57:45;13.20;99.90
4399;DHT22;2213;49.720;7.296;2022-09-01T05:00:19;13.20;99.90
4399;DHT22;2213;49.720;7.296;2022-09-01T05:02:57;13.20;99.90
4399;DHT22;2213;49.720;7.296;2022-09-01T05:05:35;13.20;99.90
4399;DHT22;2213;49.720;7.296;2022-09-01T05:08:09;13.20;99.90
4399;DHT22;2213;49.720;7.296;2022-09-01T05:10:51;13.20;99.90
4399;DHT22;2213;49.720;7.296;2022-09-01T05:13:23;13.10;99.90
4399;DHT22;2213;49.720;7.296;2022-09-01T05:16:02;13.10;99.90
4399;DHT22;2213;49.720;7.296;2022-09-01T05:18:33;13.10;99.90
4399;DHT22;2213;49.720;7.296;2022-09-01T05:21:04;13.10;99.90
4399;DHT22;2213;49.720;7.296;2022-09-01T05:23:36;13.10;99.90
4399;DHT22;2213;49.720;7.296;2022-09-01T05:26:11;13.10;99.90
4399;DHT22;2213;49.720;7.296;2022-09-01T05:28:42;13.10;99.90
4399;DHT22;2213;49.720;7.296;2022-09-01T05:31:13;13.10;99.90
4399;DHT22;2213;49.720;7.296;2022-09-01T05:33:45;13.10;99.90
4399;DHT22;2213;49.720;7.296;2022-09-01T05:36:18;13.00;99.90
4399;DHT22;2213;49.720;7.296;2022-09-01T05:38:49;13.10;99.90
4399;DHT22;2213;49.720;7.296;2022-09-01T05:41:19;13.10;99.90
4399;DHT22;2213;49.720;7.296;2022-09-01T05:43:51;13.10;99.90
4399;DHT22;2213;49.720;7.296;2022-09-01T05:46:28;13.10;99.90
4399;DHT22;2213;49.720;7.296;2022-09-01T05:48:57;13.20;99.90
4399;DHT22;2213;49.720;7.296;2022-09-01T05:51:28;13.20;99.90
4399;DHT22;2213;49.720;7.296;2022-09-01T05:54:12;13.20;99.90
4399;DHT22;2213;49.720;7.296;2022-09-01T05:56:41;13.30;99.90
4399;DHT22;2213;49.720;7.296;2022-09-01T05:59:12;13.30;99.90
4399;DHT22;2213;49.720;7.296;2022-09-01T06:01:53;13.40;99.90
4399;DHT22;2213;49.720;7.296;2022-09-01T06:04:23;13.40;99.90
4399;DHT22;2213;49.720;7.296;2022-09-01T06:06:53;13.50;99.90
4399;DHT22;2213;49.720;7.296;2022-09-01T06:09:36;13.60;99.90
4399;DHT22;2213;49.720;7.296;2022-09-01T06:12:07;13.60;99.90
4399;DHT22;2213;49.720;7.296;2022-09-01T06:14:45;13.60;99.90
4399;DHT22;2213;49.720;7.296;2022-09-01T06:17:17;13.70;99.90
4399;DHT22;2213;49.720;7.296;2022-09-01T06:19:51;13.80;99.90
4399;DHT22;2213;49.720;7.296;2022-09-01T06:22:23;13.80;99.90
4399;DHT22;2213;49.720;7.296;2022-09-01T06:24:55;13.80;99.90
4399;DHT22;2213;49.720;7.296;2022-09-01T06:27:29;13.90;99.90
4399;DHT22;2213;49.720;7.296;2022-09-01T06:29:57;13.90;99.90
4399;DHT22;2213;49.720;7.296;2022-09-01T06:32:29;14.00;99.90
4399;DHT22;2213;49.720;7.296;2022-09-01T06:34:59;14.00;99.90
4399;DHT22;2213;49.720;7.296;2022-09-01T06:37:31;14.00;99.90
4399;DHT22;2213;49.720;7.296;2022-09-01T06:40:01;14.00;99.90
4399;DHT22;2213;49.720;7.296;2022-09-01T06:42:32;14.10;99.90
4399;DHT22;2213;49.720;7.296;2022-09-01T06:45:01;14.20;99.90
4399;DHT22;2213;49.720;7.296;2022-09-01T06:47:31;14.20;99.90
4399;DHT22;2213;49.720;7.296;2022-09-01T06:50:01;14.30;99.90
4399;DHT22;2213;49.720;7.296;2022-09-01T06:52:34;14.40;99.90
4399;DHT22;2213;49.720;7.296;2022-09-01T06:55:24;14.50;99.90
4399;DHT22;2213;49.720;7.296;2022-09-01T06:58:02;14.60;99.90
4399;DHT22;2213;49.720;7.296;2022-09-01T07:00:35;14.60;99.90
4399;DHT22;2213;49.720;7.296;2022-09-01T07:03:10;14.80;99.90
4399;DHT22;2213;49.720;7.296;2022-09-01T07:05:44;14.90;99.90
4399;DHT22;2213;49.720;7.296;2022-09-01T07:08:30;14.90;99.90
4399;DHT22;2213;49.720;7.296;2022-09-01T07:11:27;15.00;99.90
4399;DHT22;2213;49.720;7.296;2022-09-01T07:14:18;15.20;99.90
4399;DHT22;2213;49.720;7.296;2022-09-01T07:16:48;15.30;99.90
4399;DHT22;2213;49.720;7.296;2022-09-01T07:19:38;15.50;99.90
4399;DHT22;2213;49.720;7.296;2022-09-01T07:22:14;15.70;99.90
4399;DHT22;2213;49.720;7.296;2022-09-01T07:25:05;15.80;99.90
4399;DHT22;2213;49.720;7.296;2022-09-01T07:27:39;15.90;99.90
4399;DHT22;2213;49.720;7.296;2022-09-01T07:30:17;16.00;99.90
4399;DHT22;2213;49.720;7.296;2022-09-01T07:32:50;16.10;99.90
4399;DHT22;2213;49.720;7.296;2022-09-01T07:35:22;16.20;99.90
4399;DHT22;2213;49.720;7.296;2022-09-01T07:37:52;16.30;99.90
4399;DHT22;2213;49.720;7.296;2022-09-01T07:40:42;16.40;99.90
4399;DHT22;2213;49.720;7.296;2022-09-01T07:43:30;16.50;99.90
4399;DHT22;2213;49.720;7.296;2022-09-01T07:46:03;16.50;99.90
4399;DHT22;2213;49.720;7.296;2022-09-01T07:48:54;16.70;99.90
4399;DHT22;2213;49.720;7.296;2022-09-01T07:51:44;16.70;99.90
4399;DHT22;2213;49.720;7.296;2022-09-01T07:54:17;16.90;99.90
4399;DHT22;2213;49.720;7.296;2022-09-01T07:56:47;17.00;99.90
4399;DHT22;2213;49.720;7.296;2022-09-01T07:59:16;17.00;99.90
4399;DHT22;2213;49.720;7.296;2022-09-01T08:01:47;17.00;99.90
4399;DHT22;2213;49.720;7.296;2022-09-01T08:04:16;17.10;99.90
4399;DHT22;2213;49.720;7.296;2022-09-01T08:06:51;17.20;99.90
4399;DHT22;2213;49.720;7.296;2022-09-01T08:09:21;17.30;99.90
4399;DHT22;2213;49.720;7.296;2022-09-01T08:12:04;17.30;99.90
4399;DHT22;2213;49.720;7.296;2022-09-01T08:14:33;17.40;99.90
4399;DHT22;2213;49.720;7.296;2022-09-01T08:17:02;17.50;99.90
4399;DHT22;2213;49.720;7.296;2022-09-01T08:19:52;17.50;99.90
4399;DHT22;2213;49.720;7.296;2022-09-01T08:22:24;17.60;99.90
4399;DHT22;2213;49.720;7.296;2022-09-01T08:24:53;17.60;99.90
4399;DHT22;2213;49.720;7.296;2022-09-01T08:27:23;17.70;99.90
4399;DHT22;2213;49.720;7.296;2022-09-01T08:29:51;17.80;99.90
4399;DHT22;2213;49.720;7.296;2022-09-01T08:32:20;17.80;99.90
4399;DHT22;2213;49.720;7.296;2022-09-01T08:34:49;17.90;99.90
4399;DHT22;2213;49.720;7.296;2022-09-01T08:37:17;17.90;99.90
4399;DHT22;2213;49.720;7.296;2022-09-01T08:39:49;17.90;99.90
4399;DHT22;2213;49.720;7.296;2022-09-01T08:42:27;17.90;99.90
4399;DHT22;2213;49.720;7.296;2022-09-01T08:45:12;17.90;99.70
4399;DHT22;2213;49.720;7.296;2022-09-01T08:47:47;18.00;99.90
4399;DHT22;2213;49.720;7.296;2022-09-01T08:50:41;18.10;99.80
4399;DHT22;2213;49.720;7.296;2022-09-01T08:53:25;18.20;99.90
4399;DHT22;2213;49.720;7.296;2022-09-01T08:56:00;18.30;99.90
4399;DHT22;2213;49.720;7.296;2022-09-01T08:58:31;18.30;99.90
4399;DHT22;2213;49.720;7.296;2022-09-01T09:01:03;18.30;99.70
4399;DHT22;2213;49.720;7.296;2022-09-01T09:03:43;18.30;99.80
4399;DHT22;2213;49.720;7.296;2022-09-01T09:06:32;18.40;99.30
4399;DHT22;2213;49.720;7.296;2022-09-01T09:09:07;18.50;99.10
4399;DHT22;2213;49.720;7.296;2022-09-01T09:11:56;18.50;99.20
4399;DHT22;2213;49.720;7.296;2022-09-01T09:14:51;18.40;99.20
4399;DHT22;2213;49.720;7.296;2022-09-01T09:17:36;18.50;99.50
4399;DHT22;2213;49.720;7.296;2022-09-01T09:20:09;18.50;99.40
4399;DHT22;2213;49.720;7.296;2022-09-01T09:22:39;18.50;99.20
4399;DHT22;2213;49.720;7.296;2022-09-01T09:25:11;18.60;99.30
4399;DHT22;2213;49.720;7.296;2022-09-01T09:27:48;18.80;99.10
4399;DHT22;2213;49.720;7.296;2022-09-01T09:30:28;18.80;99.10
4399;DHT22;2213;49.720;7.296;2022-09-01T09:33:00;18.90;99.20
4399;DHT22;2213;49.720;7.296;2022-09-01T09:35:51;19.00;99.00
4399;DHT22;2213;49.720;7.296;2022-09-01T09:38:24;19.00;98.90
4399;DHT22;2213;49.720;7.296;2022-09-01T09:40:59;19.10;98.80
4399;DHT22;2213;49.720;7.296;2022-09-01T09:43:48;19.10;98.80
4399;DHT22;2213;49.720;7.296;2022-09-01T09:46:27;19.10;98.70
4399;DHT22;2213;49.720;7.296;2022-09-01T09:49:22;19.20;98.80
4399;DHT22;2213;49.720;7.296;2022-09-01T09:52:15;19.20;98.70
4399;DHT22;2213;49.720;7.296;2022-09-01T09:55:15;19.30;98.80
4399;DHT22;2213;49.720;7.296;2022-09-01T09:57:50;19.30;98.60
4399;DHT22;2213;49.720;7.296;2022-09-01T10:00:26;19.50;98.60
4399;DHT22;2213;49.720;7.296;2022-09-01T10:02:59;19.50;98.50
4399;DHT22;2213;49.720;7.296;2022-09-01T10:05:41;19.50;98.40
4399;DHT22;2213;49.720;7.296;2022-09-01T10:08:13;19.50;98.40
4399;DHT22;2213;49.720;7.296;2022-09-01T10:11:04;19.70;98.20
4399;DHT22;2213;49.720;7.296;2022-09-01T10:13:34;19.80;98.00
4399;DHT22;2213;49.720;7.296;2022-09-01T10:16:11;19.90;97.70
4399;DHT22;2213;49.720;7.296;2022-09-01T10:18:56;19.90;97.60
4399;DHT22;2213;49.720;7.296;2022-09-01T10:21:31;19.90;97.40
4399;DHT22;2213;49.720;7.296;2022-09-01T10:24:09;19.90;97.30
4399;DHT22;2213;49.720;7.296;2022-09-01T10:26:51;19.90;97.30
4399;DHT22;2213;49.720;7.296;2022-09-01T10:29:27;19.90;97.50
4399;DHT22;2213;49.720;7.296;2022-09-01T10:32:07;19.90;97.40
4399;DHT22;2213;49.720;7.296;2022-09-01T10:34:59;20.10;97.20
4399;DHT22;2213;49.720;7.296;2022-09-01T10:37:31;20.00;97.20
4399;DHT22;2213;49.720;7.296;2022-09-01T10:40:16;20.10;97.40
4399;DHT22;2213;49.720;7.296;2022-09-01T10:42:58;20.30;97.00
4399;DHT22;2213;49.720;7.296;2022-09-01T10:45:48;20.20;97.10
4399;DHT22;2213;49.720;7.296;2022-09-01T10:48:28;20.30;96.80
4399;DHT22;2213;49.720;7.296;2022-09-01T10:51:42;20.40;96.80
4399;DHT22;2213;49.720;7.296;2022-09-01T10:54:57;20.50;96.40
4399;DHT22;2213;49.720;7.296;2022-09-01T10:57:37;20.50;96.40
4399;DHT22;2213;49.720;7.296;2022-09-01T11:00:45;20.40;96.20
4399;DHT22;2213;49.720;7.296;2022-09-01T11:03:59;20.60;96.40
4399;DHT22;2213;49.720;7.296;2022-09-01T11:06:56;20.70;96.00
4399;DHT22;2213;49.720;7.296;2022-09-01T11:10:13;20.80;96.30
4399;DHT22;2213;49.720;7.296;2022-09-01T11:16:31;20.90;95.70
4399;DHT22;2213;49.720;7.296;2022-09-01T11:19:37;20.90;95.80
4399;DHT22;2213;49.720;7.296;2022-09-01T11:22:17;21.00;95.60
4399;DHT22;2213;49.720;7.296;2022-09-01T11:28:40;21.10;95.20
4399;DHT22;2213;49.720;7.296;2022-09-01T11:31:29;21.00;95.20
4399;DHT22;2213;49.720;7.296;2022-09-01T11:34:17;21.20;95.00
4399;DHT22;2213;49.720;7.296;2022-09-01T11:36:59;21.30;95.10
4399;DHT22;2213;49.720;7.296;2022-09-01T11:39:40;21.30;94.90
4399;DHT22;2213;49.720;7.296;2022-09-01T11:42:18;21.30;94.90
4399;DHT22;2213;49.720;7.296;2022-09-01T11:44:55;21.30;94.80
4399;DHT22;2213;49.720;7.296;2022-09-01T11:47:32;21.30;94.90
4399;DHT22;2213;49.720;7.296;2022-09-01T11:50:07;21.30;95.00
4399;DHT22;2213;49.720;7.296;2022-09-01T11:52:54;21.30;94.90
4399;DHT22;2213;49.720;7.296;2022-09-01T11:55:32;21.30;94.80
4399;DHT22;2213;49.720;7.296;2022-09-01T11:58:03;21.20;94.70
4399;DHT22;2213;49.720;7.296;2022-09-01T12:00:35;21.30;95.20
4399;DHT22;2213;49.720;7.296;2022-09-01T12:03:09;21.40;94.70
4399;DHT22;2213;49.720;7.296;2022-09-01T12:05:52;21.50;94.50
4399;DHT22;2213;49.720;7.296;2022-09-01T12:08:33;21.60;94.50
4399;DHT22;2213;49.720;7.296;2022-09-01T12:11:07;21.60;94.30
4399;DHT22;2213;49.720;7.296;2022-09-01T12:13:40;21.60;94.20
4399;DHT22;2213;49.720;7.296;2022-09-01T12:16:21;21.50;94.00
4399;DHT22;2213;49.720;7.296;2022-09-01T12:18:51;21.60;94.60
4399;DHT22;2213;49.720;7.296;2022-09-01T12:21:24;21.70;94.00
4399;DHT22;2213;49.720;7.296;2022-09-01T12:24:13;21.80;94.30
4399;DHT22;2213;49.720;7.296;2022-09-01T12:26:46;21.80;94.00
4399;DHT22;2213;49.720;7.296;2022-09-01T12:29:18;21.80;93.90
4399;DHT22;2213;49.720;7.296;2022-09-01T12:31:48;21.80;94.00
4399;DHT22;2213;49.720;7.296;2022-09-01T12:34:35;21.90;94.30
4399;DHT22;2213;49.720;7.296;2022-09-01T12:37:17;21.90;93.60
4399;DHT22;2213;49.720;7.296;2022-09-01T12:39:53;21.90;93.40
4399;DHT22;2213;49.720;7.296;2022-09-01T12:42:26;21.90;93.70
4399;DHT22;2213;49.720;7.296;2022-09-01T12:45:10;21.90;93.60
4399;DHT22;2213;49.720;7.296;2022-09-01T12:47:49;21.90;93.50
4399;DHT22;2213;49.720;7.296;2022-09-01T12:50:36;22.00;93.40
4399;DHT22;2213;49.720;7.296;2022-09-01T12:53:18;22.00;93.30
4399;DHT22;2213;49.720;7.296;2022-09-01T12:56:19;22.00;93.20
4399;DHT22;2213;49.720;7.296;2022-09-01T12:59:04;22.20;92.90
4399;DHT22;2213;49.720;7.296;2022-09-01T13:01:43;22.30;92.70
4399;DHT22;2213;49.720;7.296;2022-09-01T13:04:25;22.40;92.90
4399;DHT22;2213;49.720;7.296;2022-09-01T13:07:01;22.50;92.80
4399;DHT22;2213;49.720;7.296;2022-09-01T13:09:32;22.70;92.50
4399;DHT22;2213;49.720;7.296;2022-09-01T13:12:16;22.60;92.10
4399;DHT22;2213;49.720;7.296;2022-09-01T13:14:46;22.60;92.00
4399;DHT22;2213;49.720;7.296;2022-09-01T13:17:15;22.70;92.00
4399;DHT22;2213;49.720;7.296;2022-09-01T13:19:44;22.80;92.00
4399;DHT22;2213;49.720;7.296;2022-09-01T13:22:14;22.80;91.90
4399;DHT22;2213;49.720;7.296;2022-09-01T13:24:42;23.00;92.00
4399;DHT22;2213;49.720;7.296;2022-09-01T13:27:12;23.00;91.80
4399;DHT22;2213;49.720;7.296;2022-09-01T13:29:49;23.10;91.80
4399;DHT22;2213;49.720;7.296;2022-09-01T13:32:19;23.10;91.40
4399;DHT22;2213;49.720;7.296;2022-09-01T13:34:52;23.10;91.70
4399;DHT22;2213;49.720;7.296;2022-09-01T13:37:22;23.20;91.60
4399;DHT22;2213;49.720;7.296;2022-09-01T13:39:51;23.20;91.40
4399;DHT22;2213;49.720;7.296;2022-09-01T13:42:21;23.10;91.20
4399;DHT22;2213;49.720;7.296;2022-09-01T13:44:54;23.10;91.50
4399;DHT22;2213;49.720;7.296;2022-09-01T13:47:24;23.10;91.60
4399;DHT22;2213;49.720;7.296;2022-09-01T13:49:56;23.00;91.30
4399;DHT22;2213;49.720;7.296;2022-09-01T13:52:40;23.10;91.50
4399;DHT22;2213;49.720;7.296;2022-09-01T13:55:13;23.10;91.60
4399;DHT22;2213;49.720;7.296;2022-09-01T13:57:45;23.10;91.50
4399;DHT22;2213;49.720;7.296;2022-09-01T14:00:17;23.10;91.40
4399;DHT22;2213;49.720;7.296;2022-09-01T14:02:51;23.00;91.20
4399;DHT22;2213;49.720;7.296;2022-09-01T14:05:25;23.10;91.80
4399;DHT22;2213;49.720;7.296;2022-09-01T14:07:55;23.00;91.60
4399;DHT22;2213;49.720;7.296;2022-09-01T14:10:26;23.00;90.80
4399;DHT22;2213;49.720;7.296;2022-09-01T14:12:59;23.00;91.00
4399;DHT22;2213;49.720;7.296;2022-09-01T14:15:28;23.10;90.90
4399;DHT22;2213;49.720;7.296;2022-09-01T14:17:57;23.20;91.10
4399;DHT22;2213;49.720;7.296;2022-09-01T14:20:28;23.30;90.50
4399;DHT22;2213;49.720;7.296;2022-09-01T14:23:04;23.30;90.60
4399;DHT22;2213;49.720;7.296;2022-09-01T14:25:35;23.30;90.50
4399;DHT22;2213;49.720;7.296;2022-09-01T14:28:06;23.30;90.40
4399;DHT22;2213;49.720;7.296;2022-09-01T14:30:34;23.30;90.60
4399;DHT22;2213;49.720;7.296;2022-09-01T14:33:03;23.30;90.70
4399;DHT22;2213;49.720;7.296;2022-09-01T14:35:35;23.30;90.50
4399;DHT22;2213;49.720;7.296;2022-09-01T14:38:06;23.30;90.40
4399;DHT22;2213;49.720;7.296;2022-09-01T14:40:37;23.20;90.10
4399;DHT22;2213;49.720;7.296;2022-09-01T14:43:10;23.20;90.50
4399;DHT22;2213;49.720;7.296;2022-09-01T14:45:41;23.10;90.30
4399;DHT22;2213;49.720;7.296;2022-09-01T14:48:11;23.10;90.30
4399;DHT22;2213;49.720;7.296;2022-09-01T14:50:44;23.10;90.60
4399;DHT22;2213;49.720;7.296;2022-09-01T14:53:16;23.10;90.50
4399;DHT22;2213;49.720;7.296;2022-09-01T14:55:45;23.00;90.30
4399;DHT22;2213;49.720;7.296;2022-09-01T14:58:19;23.00;90.40
4399;DHT22;2213;49.720;7.296;2022-09-01T15:00:49;23.10;90.70
4399;DHT22;2213;49.720;7.296;2022-09-01T15:03:18;23.10;90.50
4399;DHT22;2213;49.720;7.296;2022-09-01T15:05:48;23.20;90.70
4399;DHT22;2213;49.720;7.296;2022-09-01T15:08:18;23.20;90.70
4399;DHT22;2213;49.720;7.296;2022-09-01T15:10:48;23.30;90.50
4399;DHT22;2213;49.720;7.296;2022-09-01T15:13:16;23.20;90.10
4399;DHT22;2213;49.720;7.296;2022-09-01T15:15:46;23.40;90.00
4399;DHT22;2213;49.720;7.296;2022-09-01T15:18:15;23.50;89.40
4399;DHT22;2213;49.720;7.296;2022-09-01T15:20:44;23.50;88.90
4399;DHT22;2213;49.720;7.296;2022-09-01T15:23:13;23.60;89.10
4399;DHT22;2213;49.720;7.296;2022-09-01T15:25:44;23.60;89.10
4399;DHT22;2213;49.720;7.296;2022-09-01T15:28:13;23.60;88.50
4399;DHT22;2213;49.720;7.296;2022-09-01T15:30:44;23.70;88.50
4399;DHT22;2213;49.720;7.296;2022-09-01T15:33:15;23.80;88.30
4399;DHT22;2213;49.720;7.296;2022-09-01T15:35:45;23.80;88.40
4399;DHT22;2213;49.720;7.296;2022-09-01T15:38:14;23.80;88.10
4399;DHT22;2213;49.720;7.296;2022-09-01T15:40:45;23.70;87.80
4399;DHT22;2213;49.720;7.296;2022-09-01T15:43:28;23.70;88.10
4399;DHT22;2213;49.720;7.296;2022-09-01T15:46:03;23.70;88.50
4399;DHT22;2213;49.720;7.296;2022-09-01T15:48:32;23.70;88.80
4399;DHT22;2213;49.720;7.296;2022-09-01T15:51:27;23.70;88.70
4399;DHT22;2213;49.720;7.296;2022-09-01T15:54:00;23.70;88.90
4399;DHT22;2213;49.720;7.296;2022-09-01T15:56:30;23.70;88.50
4399;DHT22;2213;49.720;7.296;2022-09-01T15:59:03;23.70;89.50
4399;DHT22;2213;49.720;7.296;2022-09-01T16:01:37;23.70;88.90
4399;DHT22;2213;49.720;7.296;2022-09-01T16:04:10;23.70;89.10
4399;DHT22;2213;49.720;7.296;2022-09-01T16:06:46;23.60;89.10
4399;DHT22;2213;49.720;7.296;2022-09-01T16:09:17;23.60;89.20
4399;DHT22;2213;49.720;7.296;2022-09-01T16:11:46;23.60;88.60
4399;DHT22;2213;49.720;7.296;2022-09-01T16:14:15;23.50;89.10
4399;DHT22;2213;49.720;7.296;2022-09-01T16:16:54;23.50;89.10
4399;DHT22;2213;49.720;7.296;2022-09-01T16:19:37;23.50;88.80
4399;DHT22;2213;49.720;7.296;2022-09-01T16:22:17;23.50;89.00
4399;DHT22;2213;49.720;7.296;2022-09-01T16:24:51;23.50;89.10
4399;DHT22;2213;49.720;7.296;2022-09-01T16:27:28;23.50;88.90
4399;DHT22;2213;49.720;7.296;2022-09-01T16:30:03;23.40;88.00
4399;DHT22;2213;49.720;7.296;2022-09-01T16:32:35;23.50;88.30
4399;DHT22;2213;49.720;7.296;2022-09-01T16:35:06;23.40;88.30
4399;DHT22;2213;49.720;7.296;2022-09-01T16:37:44;23.40;88.50
4399;DHT22;2213;49.720;7.296;2022-09-01T16:40:30;23.40;87.50
4399;DHT22;2213;49.720;7.296;2022-09-01T16:43:13;23.40;88.50
4399;DHT22;2213;49.720;7.296;2022-09-01T16:46:00;23.50;87.80
4399;DHT22;2213;49.720;7.296;2022-09-01T16:48:43;23.50;88.00
4399;DHT22;2213;49.720;7.296;2022-09-01T16:51:25;23.50;87.70
4399;DHT22;2213;49.720;7.296;2022-09-01T16:54:09;23.40;87.40
4399;DHT22;2213;49.720;7.296;2022-09-01T16:56:52;23.40;88.00
4399;DHT22;2213;49.720;7.296;2022-09-01T16:59:32;23.40;87.70
4399;DHT22;2213;49.720;7.296;2022-09-01T17:02:17;23.40;87.00